Time;durP1;ratioP1;P1;durP2;ratioP2;P2;SDS_P1;SDS_P2;PMS_P1;PMS_P2;Temp;Humidity;BMP_temperature;BMP_pressure;BME280_temperature;BME280_humidity;BME280_pressure;Samples;Min_cycle;Max_cycle;Signal;HPM_P1;HPM_P2
2021/03/15 00:02:24;;;;;;;4.20;3.80;;;5.70;99.90;;;;;;5088249;28;20488;-52
2021/03/15 00:04:50;;;;;;;4.80;2.87;;;5.80;99.90;;;;;;5085270;28;20209;-51
2021/03/15 00:07:16;;;;;;;3.30;3.00;;;5.60;99.90;;;;;;5082849;28;20208;-52
2021/03/15 00:09:41;;;;;;;3.90;3.50;;;5.90;99.90;;;;;;5073552;28;20212;-52
2021/03/15 00:12:08;;;;;;;4.33;3.10;;;5.80;99.90;;;;;;5068555;28;20170;-52
2021/03/15 00:14:34;;;;;;;3.40;3.10;;;5.90;99.90;;;;;;5077079;28;20232;-52
2021/03/15 00:17:00;;;;;;;3.20;2.90;;;5.70;99.90;;;;;;5072491;28;20177;-52
2021/03/15 00:19:25;;;;;;;3.73;3.30;;;5.70;99.90;;;;;;5067838;28;20274;-52
2021/03/15 00:21:51;;;;;;;5.33;3.17;;;5.60;99.90;;;;;;5072755;28;20205;-52
2021/03/15 00:24:16;;;;;;;3.57;3.20;;;5.70;99.90;;;;;;5082080;28;20180;-52
2021/03/15 00:26:42;;;;;;;3.40;3.10;;;5.60;99.90;;;;;;5078258;28;20217;-52
2021/03/15 00:29:08;;;;;;;4.27;3.30;;;5.40;99.90;;;;;;5075403;28;20616;-52
2021/03/15 00:31:33;;;;;;;3.40;3.10;;;5.60;99.90;;;;;;5068594;28;20179;-52
2021/03/15 00:33:59;;;;;;;2.73;2.30;;;5.60;99.90;;;;;;5069265;28;20175;-52
2021/03/15 00:36:24;;;;;;;3.23;2.97;;;5.50;99.90;;;;;;5071366;28;20547;-52
2021/03/15 00:38:51;;;;;;;4.20;3.13;;;5.60;99.90;;;;;;5079431;28;20304;-52
2021/03/15 00:41:16;;;;;;;3.60;3.30;;;4.80;99.90;;;;;;5078315;28;20177;-52
2021/03/15 00:43:42;;;;;;;3.07;2.87;;;5.30;99.90;;;;;;5083514;28;20203;-52
2021/03/15 00:46:08;;;;;;;3.13;2.73;;;5.30;99.90;;;;;;5072028;28;20214;-52
2021/03/15 00:48:33;;;;;;;3.20;2.90;;;5.10;99.90;;;;;;5073436;28;20205;-52
2021/03/15 00:50:59;;;;;;;3.70;3.20;;;5.20;99.90;;;;;;5087854;28;20185;-52
2021/03/15 00:53:24;;;;;;;3.97;3.50;;;5.30;99.90;;;;;;5071083;28;20194;-53
2021/03/15 00:55:50;;;;;;;3.27;2.97;;;5.30;99.90;;;;;;5076988;28;20193;-52
2021/03/15 00:58:16;;;;;;;3.10;2.80;;;5.30;99.90;;;;;;5083457;28;20225;-52
2021/03/15 01:00:44;;;;;;;4.87;3.20;;;5.30;99.90;;;;;;5071036;28;20186;-52
2021/03/15 01:03:10;;;;;;;3.75;3.20;;;5.30;99.90;;;;;;5073302;28;20198;-52
2021/03/15 01:05:49;;;;;;;3.07;2.77;;;5.30;99.90;;;;;;5083315;28;20201;-53
2021/03/15 01:08:15;;;;;;;4.75;4.05;;;5.20;99.90;;;;;;5081733;28;20456;-52
2021/03/15 01:10:43;;;;;;;4.60;3.63;;;5.30;99.90;;;;;;5090660;28;20335;-53
2021/03/15 01:13:09;;;;;;;4.55;3.38;;;5.10;99.90;;;;;;5079206;28;20266;-53
2021/03/15 01:15:36;;;;;;;3.60;2.70;;;5.30;99.90;;;;;;5081923;28;20550;-52
2021/03/15 01:18:02;;;;;;;3.58;3.20;;;5.10;99.90;;;;;;5074675;28;20212;-52
2021/03/15 01:20:29;;;;;;;6.95;3.97;;;5.00;99.90;;;;;;5083694;28;20250;-52
2021/03/15 01:22:55;;;;;;;4.20;3.80;;;4.90;99.90;;;;;;5075064;28;20190;-52
2021/03/15 01:25:40;;;;;;;5.05;3.25;;;5.00;99.90;;;;;;5080156;28;20220;-52
2021/03/15 01:28:09;;;;;;;4.25;3.85;;;5.00;99.90;;;;;;5070856;28;20205;-52
2021/03/15 01:30:36;;;;;;;3.33;3.00;;;5.20;99.90;;;;;;5075469;28;20281;-52
2021/03/15 01:33:02;;;;;;;4.60;3.95;;;4.90;99.90;;;;;;5079492;28;20184;-52
2021/03/15 01:35:28;;;;;;;5.82;4.32;;;5.00;99.90;;;;;;5085181;28;20280;-52
2021/03/15 01:37:54;;;;;;;4.13;3.43;;;4.90;99.90;;;;;;5079341;28;20773;-52
2021/03/15 01:40:20;;;;;;;3.47;3.17;;;4.80;99.90;;;;;;5085476;28;20238;-52
2021/03/15 01:42:46;;;;;;;4.32;3.92;;;4.60;99.90;;;;;;5082269;28;20185;-52
2021/03/15 01:45:12;;;;;;;3.93;3.30;;;4.90;99.90;;;;;;5079146;28;20474;-52
2021/03/15 01:47:40;;;;;;;4.93;3.53;;;4.70;99.90;;;;;;5071689;28;20465;-52
2021/03/15 01:50:08;;;;;;;3.70;3.40;;;4.70;99.90;;;;;;5074933;28;20551;-52
2021/03/15 01:52:35;;;;;;;4.30;3.53;;;4.90;99.90;;;;;;5082544;28;20204;-52
2021/03/15 01:55:02;;;;;;;5.80;3.97;;;4.70;99.90;;;;;;5087132;28;20665;-52
2021/03/15 01:57:28;;;;;;;5.43;3.15;;;4.70;99.90;;;;;;5069927;28;20227;-53
2021/03/15 01:59:54;;;;;;;4.32;3.50;;;4.20;99.90;;;;;;5074636;28;20177;-52
2021/03/15 02:02:20;;;;;;;3.57;3.23;;;4.60;99.90;;;;;;5087182;28;20192;-52
2021/03/15 02:04:46;;;;;;;3.97;3.42;;;4.70;99.90;;;;;;5082934;28;20821;-52
2021/03/15 02:07:12;;;;;;;5.30;4.00;;;4.40;99.90;;;;;;5076003;28;20198;-52
2021/03/15 02:09:37;;;;;;;4.00;3.60;;;4.40;99.90;;;;;;5074940;28;20977;-52
2021/03/15 02:12:09;;;;;;;4.93;3.77;;;4.50;99.90;;;;;;5085275;28;20897;-52
2021/03/15 02:14:44;;;;;;;3.60;3.28;;;4.30;99.90;;;;;;5085708;28;20177;-52
2021/03/15 02:17:23;;;;;;;5.18;3.15;;;4.30;99.90;;;;;;5085872;28;20203;-52
2021/03/15 02:20:26;;;;;;;5.10;3.95;;;4.30;99.90;;;;;;5089478;28;20187;-52
2021/03/15 02:22:54;;;;;;;4.43;3.60;;;4.50;99.90;;;;;;5106763;28;20184;-52
2021/03/15 02:25:44;;;;;;;4.85;3.90;;;4.30;99.90;;;;;;5074984;28;20212;-52
2021/03/15 02:28:20;;;;;;;6.78;3.90;;;4.50;99.90;;;;;;5077494;28;20192;-52
2021/03/15 02:31:08;;;;;;;4.28;3.88;;;4.50;99.90;;;;;;5088316;28;20560;-52
2021/03/15 02:34:05;;;;;;;5.60;4.10;;;4.60;99.90;;;;;;5072495;28;20669;-52
2021/03/15 02:36:37;;;;;;;7.28;4.40;;;4.40;99.90;;;;;;5046666;28;20184;-52
2021/03/15 02:39:09;;;;;;;5.55;4.57;;;4.40;99.90;;;;;;5091103;28;20681;-52
2021/03/15 02:41:37;;;;;;;5.43;4.38;;;4.00;99.90;;;;;;5087503;28;20176;-52
2021/03/15 02:44:05;;;;;;;4.13;3.65;;;4.20;99.90;;;;;;5084875;28;20174;-52
2021/03/15 02:46:31;;;;;;;6.18;4.05;;;4.20;99.90;;;;;;5088643;28;20218;-53
2021/03/15 02:49:01;;;;;;;5.00;4.00;;;4.30;99.90;;;;;;5073003;28;20197;-53
2021/03/15 02:51:30;;;;;;;4.13;3.25;;;4.40;99.90;;;;;;5082519;28;20177;-53
2021/03/15 02:53:58;;;;;;;4.80;4.25;;;4.30;99.90;;;;;;5088443;28;20257;-52
2021/03/15 02:56:30;;;;;;;5.07;3.90;;;4.40;99.90;;;;;;5085581;28;20861;-52
2021/03/15 02:58:57;;;;;;;4.35;3.83;;;4.30;99.90;;;;;;5082357;28;20204;-52
2021/03/15 03:01:24;;;;;;;5.05;4.25;;;4.40;99.90;;;;;;5086664;28;20273;-52
2021/03/15 03:03:53;;;;;;;5.35;3.80;;;4.50;99.90;;;;;;5083125;28;20227;-52
2021/03/15 03:06:21;;;;;;;4.25;3.85;;;4.40;99.90;;;;;;5086490;28;20311;-53
2021/03/15 03:08:49;;;;;;;4.45;4.03;;;4.40;99.90;;;;;;5069242;28;20246;-52
2021/03/15 03:11:16;;;;;;;5.15;3.65;;;4.30;99.90;;;;;;5074402;28;20185;-52
2021/03/15 03:13:43;;;;;;;6.78;4.78;;;4.10;99.90;;;;;;5083783;28;20685;-52
2021/03/15 03:16:10;;;;;;;4.63;3.95;;;4.40;99.90;;;;;;5076113;28;20280;-52
2021/03/15 03:18:37;;;;;;;6.90;4.03;;;4.20;99.90;;;;;;5089393;28;20207;-52
2021/03/15 03:21:04;;;;;;;6.10;3.80;;;4.20;99.90;;;;;;5079005;28;20231;-52
2021/03/15 03:23:36;;;;;;;6.25;3.67;;;3.80;99.90;;;;;;5080309;28;20199;-53
2021/03/15 03:26:04;;;;;;;4.45;3.70;;;4.30;99.90;;;;;;5080635;28;20691;-52
2021/03/15 03:28:31;;;;;;;6.93;4.32;;;4.20;99.90;;;;;;5075674;28;20215;-52
2021/03/15 03:31:01;;;;;;;7.00;4.00;;;4.00;99.90;;;;;;5089660;28;20671;-52
2021/03/15 03:33:27;;;;;;;4.47;3.42;;;4.10;99.90;;;;;;5072640;28;20186;-52
2021/03/15 03:35:52;;;;;;;4.20;3.43;;;3.80;99.90;;;;;;5079034;28;20181;-52
2021/03/15 03:38:18;;;;;;;5.63;4.20;;;4.20;99.90;;;;;;5076943;28;20648;-52
2021/03/15 03:40:44;;;;;;;4.97;3.60;;;4.20;99.90;;;;;;5075247;28;20434;-52
2021/03/15 03:43:10;;;;;;;5.07;3.78;;;4.20;99.90;;;;;;5072628;28;20440;-52
2021/03/15 03:45:36;;;;;;;5.67;3.23;;;4.10;99.90;;;;;;5077655;28;20205;-52
2021/03/15 03:48:05;;;;;;;5.30;3.57;;;4.20;99.90;;;;;;5068356;28;20455;-52
2021/03/15 03:50:33;;;;;;;5.38;3.13;;;4.30;99.90;;;;;;5073400;28;20178;-53
2021/03/15 03:53:36;;;;;;;3.35;3.05;;;4.70;99.90;;;;;;5079417;28;20661;-52
2021/03/15 03:56:15;;;;;;;4.90;2.95;;;4.50;99.90;;;;;;5053324;28;20204;-52
2021/03/15 03:58:52;;;;;;;4.07;3.33;;;4.50;99.90;;;;;;5067811;28;20259;-52
2021/03/15 04:01:26;;;;;;;6.90;3.25;;;4.70;99.90;;;;;;5074391;28;20688;-52
2021/03/15 04:03:54;;;;;;;4.00;2.75;;;4.90;99.90;;;;;;5085972;28;20216;-52
2021/03/15 04:06:24;;;;;;;3.50;3.05;;;5.00;99.90;;;;;;5083625;28;20212;-53
2021/03/15 04:09:05;;;;;;;5.72;2.85;;;5.10;99.90;;;;;;5083580;28;20677;-52
2021/03/15 04:11:34;;;;;;;5.95;3.03;;;5.00;99.90;;;;;;5074425;28;20185;-52
2021/03/15 04:14:02;;;;;;;3.70;2.63;;;5.00;99.90;;;;;;5081930;28;20173;-52
2021/03/15 04:16:35;;;;;;;2.78;2.50;;;5.00;99.90;;;;;;5081557;28;20181;-53
2021/03/15 04:19:04;;;;;;;3.88;2.55;;;5.00;99.90;;;;;;5084254;28;20286;-53
2021/03/15 04:21:32;;;;;;;4.53;2.70;;;5.10;99.90;;;;;;5076492;28;20174;-52
2021/03/15 04:23:59;;;;;;;4.05;2.95;;;4.90;99.90;;;;;;5076035;28;20646;-53
2021/03/15 04:26:26;;;;;;;4.63;2.85;;;5.20;99.90;;;;;;5074808;28;20595;-52
2021/03/15 04:28:54;;;;;;;2.83;2.63;;;5.30;99.90;;;;;;5067792;28;20205;-52
2021/03/15 04:31:22;;;;;;;5.03;2.35;;;5.10;99.90;;;;;;5067908;28;20178;-52
2021/03/15 04:33:49;;;;;;;3.83;2.70;;;5.20;99.90;;;;;;5071464;28;20714;-52
2021/03/15 04:36:17;;;;;;;4.55;2.65;;;5.10;99.90;;;;;;5079449;28;20227;-52
2021/03/15 04:38:43;;;;;;;3.80;2.70;;;5.00;99.90;;;;;;5084003;28;20210;-52
2021/03/15 04:41:10;;;;;;;4.95;3.13;;;5.20;99.90;;;;;;5077321;28;20232;-52
2021/03/15 04:43:38;;;;;;;5.05;3.00;;;5.30;99.90;;;;;;5072693;28;20221;-52
2021/03/15 04:46:08;;;;;;;4.15;3.35;;;5.10;99.90;;;;;;5079110;28;20594;-52
2021/03/15 04:48:42;;;;;;;3.90;3.00;;;5.40;99.90;;;;;;5077665;28;20280;-52
2021/03/15 04:51:08;;;;;;;5.10;3.10;;;5.40;99.90;;;;;;5077545;28;20259;-52
2021/03/15 04:53:39;;;;;;;4.50;2.92;;;5.50;99.90;;;;;;5079451;28;20181;-52
2021/03/15 04:56:17;;;;;;;3.40;3.08;;;5.30;99.90;;;;;;5077088;28;20188;-52
2021/03/15 04:58:49;;;;;;;4.18;3.35;;;5.20;99.90;;;;;;5082060;28;20211;-52
2021/03/15 05:01:16;;;;;;;3.20;2.90;;;5.10;99.90;;;;;;5087539;28;20216;-52
2021/03/15 05:03:43;;;;;;;5.88;3.58;;;5.20;99.90;;;;;;5088599;28;20647;-52
2021/03/15 05:06:11;;;;;;;3.42;3.13;;;4.90;99.90;;;;;;5083649;28;20258;-52
2021/03/15 05:08:43;;;;;;;5.30;3.50;;;5.30;99.90;;;;;;5082467;28;20354;-52
2021/03/15 05:11:10;;;;;;;3.67;2.80;;;5.40;99.90;;;;;;5084784;28;20188;-52
2021/03/15 05:13:39;;;;;;;6.18;3.50;;;5.40;99.90;;;;;;5083525;28;20284;-52
2021/03/15 05:16:07;;;;;;;3.97;2.58;;;5.30;99.90;;;;;;5075870;28;20253;-52
2021/03/15 05:18:34;;;;;;;5.93;3.38;;;5.30;99.90;;;;;;5082663;28;20679;-52
2021/03/15 05:21:01;;;;;;;4.47;2.55;;;5.40;99.90;;;;;;5071196;28;20244;-52
2021/03/15 05:23:28;;;;;;;3.25;2.65;;;5.30;99.90;;;;;;5081200;28;20212;-52
2021/03/15 05:25:56;;;;;;;5.93;3.30;;;5.10;99.90;;;;;;5090549;28;20201;-52
2021/03/15 05:28:22;;;;;;;9.68;3.10;;;5.20;99.90;;;;;;5079323;28;20226;-52
2021/03/15 05:30:50;;;;;;;3.00;2.58;;;5.50;99.90;;;;;;5088051;28;20455;-52
2021/03/15 05:33:19;;;;;;;6.88;2.95;;;5.50;99.90;;;;;;5090751;28;20178;-52
2021/03/15 05:35:47;;;;;;;5.88;3.60;;;5.50;99.90;;;;;;5080105;28;20672;-52
2021/03/15 05:38:13;;;;;;;5.20;2.60;;;5.40;99.90;;;;;;5083249;28;20673;-52
2021/03/15 05:40:42;;;;;;;4.20;2.90;;;5.20;99.90;;;;;;5080442;28;20268;-52
2021/03/15 05:43:21;;;;;;;3.95;2.92;;;5.20;99.90;;;;;;5075127;28;20183;-52
2021/03/15 05:46:25;;;;;;;3.25;2.90;;;5.30;99.90;;;;;;5083326;28;20217;-52
2021/03/15 05:49:15;;;;;;;3.22;2.92;;;5.20;99.90;;;;;;5079446;28;20192;-52
2021/03/15 05:52:02;;;;;;;3.95;3.00;;;5.30;99.90;;;;;;5082251;28;20173;-52
2021/03/15 05:54:55;;;;;;;3.30;2.53;;;5.00;99.90;;;;;;5078437;28;20206;-52
2021/03/15 05:57:55;;;;;;;4.22;2.90;;;5.30;99.90;;;;;;5067090;28;20314;-52
2021/03/15 06:00:30;;;;;;;5.00;3.30;;;5.10;99.90;;;;;;5088967;28;20247;-52
2021/03/15 06:03:10;;;;;;;5.72;2.80;;;5.20;99.90;;;;;;5081206;28;20303;-52
2021/03/15 06:05:36;;;;;;;3.90;2.80;;;5.30;99.90;;;;;;5082609;28;20409;-52
2021/03/15 06:08:08;;;;;;;4.00;3.45;;;5.40;99.90;;;;;;5076715;28;20844;-53
2021/03/15 06:10:47;;;;;;;4.70;2.70;;;5.10;99.90;;;;;;5081598;28;21223;-52
2021/03/15 06:13:14;;;;;;;2.63;2.40;;;5.10;99.90;;;;;;5080417;28;21060;-52
2021/03/15 06:15:45;;;;;;;3.20;2.90;;;5.10;99.90;;;;;;5083230;28;20205;-51
2021/03/15 06:18:14;;;;;;;4.07;2.42;;;5.10;99.90;;;;;;5074570;28;20240;-51
2021/03/15 06:20:50;;;;;;;2.78;2.58;;;5.20;99.90;;;;;;5074609;28;20572;-52
2021/03/15 06:23:17;;;;;;;5.03;3.22;;;5.20;99.90;;;;;;5080201;28;20743;-52
2021/03/15 06:25:45;;;;;;;4.00;3.25;;;5.20;99.90;;;;;;5099433;28;20305;-52
2021/03/15 06:28:11;;;;;;;3.90;3.25;;;4.90;99.90;;;;;;5075623;28;20199;-52
2021/03/15 06:30:37;;;;;;;4.05;2.40;;;5.20;99.90;;;;;;5081381;28;22191;-52
2021/03/15 06:33:04;;;;;;;4.55;2.88;;;5.20;99.90;;;;;;5078931;28;20805;-54
2021/03/15 06:35:35;;;;;;;3.25;2.88;;;5.10;99.90;;;;;;5084556;28;20185;-55
2021/03/15 06:38:01;;;;;;;2.85;2.60;;;5.00;99.90;;;;;;5080099;28;20209;-53
2021/03/15 06:40:28;;;;;;;5.18;3.10;;;5.30;99.90;;;;;;5074898;28;20270;-52
2021/03/15 06:42:54;;;;;;;2.70;2.25;;;5.20;99.90;;;;;;5077310;28;20192;-51
2021/03/15 06:45:21;;;;;;;2.83;2.63;;;5.30;99.90;;;;;;5075505;28;20205;-51
2021/03/15 06:47:48;;;;;;;2.75;2.53;;;5.30;99.90;;;;;;5075194;28;20209;-51
2021/03/15 06:50:16;;;;;;;2.80;2.45;;;4.90;99.90;;;;;;5083383;28;20182;-51
2021/03/15 06:52:55;;;;;;;2.55;2.35;;;5.20;99.90;;;;;;5078673;28;20656;-53
2021/03/15 06:55:35;;;;;;;5.30;2.65;;;5.50;99.90;;;;;;5083003;28;20734;-52
2021/03/15 06:58:25;;;;;;;5.78;2.28;;;5.50;99.90;;;;;;5076158;28;21627;-52
2021/03/15 07:01:09;;;;;;;2.78;2.25;;;5.70;99.90;;;;;;5101253;28;20186;-52
2021/03/15 07:03:36;;;;;;;2.20;2.00;;;5.60;99.90;;;;;;5076550;28;20222;-53
2021/03/15 07:06:03;;;;;;;2.03;1.83;;;5.60;99.90;;;;;;5071619;28;20213;-52
2021/03/15 07:08:29;;;;;;;2.55;2.08;;;5.60;99.90;;;;;;5082183;28;20218;-52
2021/03/15 07:10:56;;;;;;;2.33;2.03;;;5.80;99.90;;;;;;5080377;28;20201;-52
2021/03/15 07:13:23;;;;;;;2.17;1.70;;;5.90;99.90;;;;;;5077122;28;20272;-52
2021/03/15 07:15:54;;;;;;;2.47;1.92;;;6.00;99.90;;;;;;5099707;28;20530;-53
2021/03/15 07:18:31;;;;;;;1.83;1.65;;;5.80;99.90;;;;;;5072871;28;20857;-54
2021/03/15 07:21:02;;;;;;;2.15;2.05;;;5.90;99.90;;;;;;5074938;28;20207;-54
2021/03/15 07:23:44;;;;;;;1.73;1.63;;;5.70;99.90;;;;;;5080383;28;20193;-53
2021/03/15 07:26:18;;;;;;;2.28;1.70;;;5.80;99.90;;;;;;5074267;28;20678;-51
2021/03/15 07:28:45;;;;;;;2.63;2.00;;;5.90;99.90;;;;;;5076161;28;20246;-52
2021/03/15 07:31:20;;;;;;;2.05;1.80;;;6.10;99.90;;;;;;5101283;28;20733;-52
2021/03/15 07:34:05;;;;;;;2.55;1.60;;;6.10;99.90;;;;;;5072370;28;20225;-52
2021/03/15 07:36:48;;;;;;;2.63;1.85;;;5.90;99.90;;;;;;5083084;28;20273;-53
2021/03/15 07:39:13;;;;;;;2.45;2.10;;;6.00;99.90;;;;;;5081285;28;20274;-52
2021/03/15 07:41:40;;;;;;;1.80;1.70;;;5.90;99.90;;;;;;5083462;28;20607;-52
2021/03/15 07:44:30;;;;;;;1.80;1.67;;;5.40;99.90;;;;;;5077438;28;20446;-52
2021/03/15 07:46:58;;;;;;;1.92;1.40;;;5.30;99.90;;;;;;5068342;28;20253;-54
2021/03/15 07:49:29;;;;;;;1.30;1.20;;;5.40;99.90;;;;;;5079348;28;20220;-52
2021/03/15 07:51:57;;;;;;;1.67;1.30;;;5.00;99.90;;;;;;5081650;28;20195;-54
2021/03/15 07:54:25;;;;;;;1.45;1.35;;;5.10;99.90;;;;;;5093911;28;20447;-53
2021/03/15 07:57:12;;;;;;;1.40;1.30;;;5.30;99.90;;;;;;5071487;28;20178;-52
2021/03/15 07:59:40;;;;;;;1.38;1.20;;;5.20;99.90;;;;;;5081127;28;20187;-51
2021/03/15 08:02:07;;;;;;;2.03;1.38;;;5.10;99.90;;;;;;5083903;28;20277;-52
2021/03/15 08:04:32;;;;;;;1.55;1.45;;;5.20;99.90;;;;;;5094339;28;20187;-50
2021/03/15 08:07:00;;;;;;;1.77;1.63;;;5.10;99.90;;;;;;5078901;28;20332;-52
2021/03/15 08:09:25;;;;;;;1.73;1.50;;;5.20;99.90;;;;;;5084398;28;20436;-52
2021/03/15 08:11:53;;;;;;;1.53;1.43;;;5.30;99.90;;;;;;5066829;28;20192;-51
2021/03/15 08:14:21;;;;;;;1.50;1.40;;;5.60;99.90;;;;;;5078612;28;20181;-50
2021/03/15 08:16:47;;;;;;;2.30;1.77;;;5.50;99.90;;;;;;5069606;28;20548;-53
2021/03/15 08:19:18;;;;;;;1.60;1.20;;;6.10;99.90;;;;;;5072364;28;20655;-50
2021/03/15 08:21:46;;;;;;;1.52;1.42;;;5.50;99.90;;;;;;5080327;28;20185;-53
2021/03/15 08:24:15;;;;;;;1.70;1.60;;;6.20;99.90;;;;;;5080474;28;20189;-53
2021/03/15 08:26:42;;;;;;;2.45;2.00;;;6.20;99.90;;;;;;5077878;28;20286;-53
2021/03/15 08:29:12;;;;;;;2.00;1.65;;;6.20;99.90;;;;;;5080934;28;20192;-50
2021/03/15 08:31:44;;;;;;;1.65;1.55;;;6.40;99.90;;;;;;5080984;28;20264;-51
2021/03/15 08:34:12;;;;;;;1.92;1.77;;;6.60;99.90;;;;;;5076245;28;20180;-50
2021/03/15 08:36:39;;;;;;;1.55;1.25;;;6.60;99.90;;;;;;5085041;28;20602;-53
2021/03/15 08:39:27;;;;;;;1.20;0.93;;;6.60;99.90;;;;;;5081741;28;20204;-54
2021/03/15 08:42:14;;;;;;;1.27;1.13;;;7.10;99.90;;;;;;5076653;28;20634;-54
2021/03/15 08:44:45;;;;;;;1.27;1.17;;;7.40;99.90;;;;;;5081155;28;20194;-53
2021/03/15 08:47:32;;;;;;;2.38;1.30;;;6.80;99.90;;;;;;5081624;28;20253;-54
2021/03/15 08:49:58;;;;;;;1.38;1.20;;;7.00;99.90;;;;;;5079595;28;20250;-54
2021/03/15 08:52:35;;;;;;;2.37;1.37;;;6.70;99.90;;;;;;5081988;28;20271;-56
2021/03/15 08:55:00;;;;;;;1.20;1.08;;;6.70;99.90;;;;;;5075945;28;20255;-53
2021/03/15 08:57:32;;;;;;;2.27;1.23;;;6.90;99.90;;;;;;5079931;28;20330;-54
2021/03/15 08:59:58;;;;;;;1.40;1.23;;;6.10;99.90;;;;;;5069238;28;20449;-54
2021/03/15 09:02:37;;;;;;;1.70;1.60;;;6.60;99.90;;;;;;5081491;28;20182;-54
2021/03/15 09:05:23;;;;;;;2.88;1.45;;;6.30;99.90;;;;;;5071642;28;20461;-54
2021/03/15 09:08:00;;;;;;;2.42;1.38;;;6.40;99.90;;;;;;5076140;28;20325;-55
2021/03/15 09:10:31;;;;;;;3.03;1.58;;;6.50;99.90;;;;;;5072454;28;20196;-53
2021/03/15 09:13:12;;;;;;;3.55;1.90;;;6.40;99.90;;;;;;5071176;28;20278;-53
2021/03/15 09:15:40;;;;;;;1.88;1.15;;;6.50;99.90;;;;;;5071082;28;20195;-53
2021/03/15 09:18:37;;;;;;;1.35;1.25;;;6.60;99.90;;;;;;5068914;28;20204;-53
2021/03/15 09:21:23;;;;;;;1.10;0.95;;;6.80;99.90;;;;;;5077780;28;20463;-54
2021/03/15 09:23:49;;;;;;;5.38;4.80;;;6.80;99.90;;;;;;5077696;28;20208;-54
2021/03/15 09:26:29;;;;;;;3.97;1.58;;;6.70;99.90;;;;;;5086100;28;20207;-54
2021/03/15 09:28:57;;;;;;;1.20;1.10;;;6.70;99.90;;;;;;5080968;28;20223;-53
2021/03/15 09:31:25;;;;;;;1.30;1.13;;;7.10;99.90;;;;;;5076087;28;20184;-55
2021/03/15 09:33:51;;;;;;;1.80;0.98;;;7.10;99.90;;;;;;5102230;28;20184;-54
2021/03/15 09:36:29;;;;;;;1.67;1.07;;;6.90;99.90;;;;;;5076762;28;20187;-54
2021/03/15 09:38:56;;;;;;;1.23;0.90;;;7.30;99.90;;;;;;5080578;28;20202;-53
2021/03/15 09:41:26;;;;;;;0.88;0.85;;;7.10;99.90;;;;;;5076963;28;20691;-55
2021/03/15 09:43:53;;;;;;;0.90;0.90;;;7.00;99.90;;;;;;5080061;28;20192;-55
2021/03/15 09:46:28;;;;;;;0.77;0.77;;;7.50;99.90;;;;;;5080611;28;20231;-54
2021/03/15 09:48:54;;;;;;;2.13;1.10;;;7.20;99.90;;;;;;5085949;28;20276;-52
2021/03/15 09:51:27;;;;;;;4.23;1.30;;;7.30;99.90;;;;;;5074189;28;20191;-53
2021/03/15 09:53:54;;;;;;;1.15;1.00;;;7.70;99.90;;;;;;5075768;28;20549;-54
2021/03/15 09:56:22;;;;;;;2.35;1.40;;;7.40;99.90;;;;;;5078936;28;20199;-53
2021/03/15 09:58:48;;;;;;;1.92;1.13;;;7.40;99.90;;;;;;5082351;28;20295;-54
2021/03/15 10:01:16;;;;;;;3.65;1.60;;;7.40;99.90;;;;;;5075469;28;20256;-55
2021/03/15 10:03:50;;;;;;;1.55;1.40;;;7.40;99.90;;;;;;5077919;28;20554;-52
2021/03/15 10:06:20;;;;;;;1.63;1.40;;;7.70;99.90;;;;;;5079458;28;20245;-54
2021/03/15 10:08:53;;;;;;;2.15;1.50;;;7.10;99.90;;;;;;5074197;28;20201;-54
2021/03/15 10:11:20;;;;;;;1.30;1.17;;;7.80;99.90;;;;;;5079754;28;20180;-52
2021/03/15 10:14:02;;;;;;;3.50;2.10;;;7.80;99.90;;;;;;5078763;28;20192;-54
2021/03/15 10:16:28;;;;;;;1.45;1.27;;;7.90;99.90;;;;;;5079961;28;20600;-53
2021/03/15 10:18:53;;;;;;;1.45;1.30;;;8.10;99.90;;;;;;5078890;28;20216;-52
2021/03/15 10:21:30;;;;;;;3.63;1.50;;;8.20;99.90;;;;;;5082002;28;20184;-51
2021/03/15 10:23:56;;;;;;;1.55;1.45;;;8.10;99.90;;;;;;5083128;28;20677;-51
2021/03/15 10:26:22;;;;;;;1.60;1.47;;;8.20;99.90;;;;;;5081795;28;20340;-51
2021/03/15 10:28:50;;;;;;;1.40;1.30;;;8.30;99.90;;;;;;5071737;28;20478;-51
2021/03/15 10:31:18;;;;;;;2.00;1.52;;;8.00;99.90;;;;;;5080294;28;20831;-53
2021/03/15 10:33:45;;;;;;;1.67;1.58;;;8.00;99.90;;;;;;5071789;28;20329;-53
2021/03/15 10:36:11;;;;;;;1.98;1.88;;;8.30;99.90;;;;;;5078676;28;20570;-52
2021/03/15 10:38:37;;;;;;;2.80;1.88;;;8.20;99.90;;;;;;5079229;28;20204;-54
2021/03/15 10:41:03;;;;;;;1.97;1.77;;;8.30;99.90;;;;;;5081155;28;20779;-54
2021/03/15 10:43:29;;;;;;;2.40;1.58;;;8.20;99.90;;;;;;5072950;28;20572;-51
2021/03/15 10:45:55;;;;;;;2.63;1.90;;;8.40;99.90;;;;;;5083448;28;20200;-53
2021/03/15 10:48:25;;;;;;;1.77;1.60;;;8.30;99.90;;;;;;5082570;28;20208;-52
2021/03/15 10:50:55;;;;;;;2.20;2.03;;;8.50;99.90;;;;;;5075638;28;20184;-54
2021/03/15 10:53:22;;;;;;;1.70;1.60;;;8.40;99.90;;;;;;5080448;28;20177;-54
2021/03/15 10:55:49;;;;;;;1.40;1.30;;;8.40;99.90;;;;;;5100819;28;20192;-55
2021/03/15 10:58:17;;;;;;;2.38;1.33;;;8.50;99.90;;;;;;5071246;28;20316;-55
2021/03/15 11:00:51;;;;;;;1.45;1.35;;;8.70;99.90;;;;;;5085221;28;20199;-54
2021/03/15 11:03:19;;;;;;;1.50;1.40;;;8.80;99.90;;;;;;5076807;28;20335;-52
2021/03/15 11:05:45;;;;;;;1.67;1.58;;;9.50;99.90;;;;;;5076993;28;20204;-52
2021/03/15 11:08:21;;;;;;;1.80;1.70;;;9.70;99.90;;;;;;5077994;28;20436;-54
2021/03/15 11:10:47;;;;;;;1.52;1.40;;;10.10;99.90;;;;;;5079591;28;20443;-53
2021/03/15 11:13:15;;;;;;;1.90;1.30;;;9.80;99.90;;;;;;5075885;28;20389;-51
2021/03/15 11:15:41;;;;;;;1.70;1.60;;;10.10;99.90;;;;;;5073987;28;20177;-51
2021/03/15 11:18:16;;;;;;;1.30;1.20;;;10.20;99.90;;;;;;5070607;28;20296;-51
2021/03/15 11:20:49;;;;;;;2.15;1.90;;;10.10;99.90;;;;;;5076392;28;20341;-53
2021/03/15 11:23:27;;;;;;;2.60;1.58;;;10.40;99.90;;;;;;5079287;28;20181;-53
2021/03/15 11:26:04;;;;;;;1.70;1.60;;;10.50;99.90;;;;;;5076693;28;20353;-53
2021/03/15 11:28:32;;;;;;;2.28;1.58;;;10.30;99.90;;;;;;5081028;28;20291;-53
2021/03/15 11:30:59;;;;;;;2.75;1.70;;;9.80;99.90;;;;;;5076196;28;20310;-53
2021/03/15 11:33:26;;;;;;;1.77;1.67;;;9.90;99.90;;;;;;5077980;28;20649;-53
2021/03/15 11:35:51;;;;;;;1.92;1.27;;;9.80;99.90;;;;;;5077947;28;20189;-53
2021/03/15 11:38:22;;;;;;;2.07;1.97;;;10.10;99.90;;;;;;5072992;28;20224;-53
2021/03/15 11:40:47;;;;;;;1.85;1.60;;;10.00;99.90;;;;;;5075025;28;20204;-53
2021/03/15 11:43:13;;;;;;;3.20;2.73;;;10.10;99.90;;;;;;5070750;28;20227;-54
2021/03/15 11:45:39;;;;;;;1.90;1.53;;;10.10;99.90;;;;;;5077277;28;20213;-53
2021/03/15 11:48:06;;;;;;;2.17;1.65;;;10.00;99.90;;;;;;5084081;28;20473;-53
2021/03/15 11:50:34;;;;;;;1.90;1.50;;;9.50;99.90;;;;;;5080580;28;20271;-52
2021/03/15 11:53:01;;;;;;;1.60;1.50;;;9.80;99.90;;;;;;5077493;28;20653;-53
2021/03/15 11:55:27;;;;;;;2.50;2.30;;;9.80;99.90;;;;;;5077779;28;20304;-53
2021/03/15 11:57:53;;;;;;;1.73;1.63;;;9.70;99.90;;;;;;5077509;28;20338;-53
2021/03/15 12:00:20;;;;;;;4.23;2.37;;;9.70;99.90;;;;;;5078480;28;20502;-53
2021/03/15 12:02:47;;;;;;;2.45;2.10;;;9.60;99.90;;;;;;5074058;28;20180;-54
2021/03/15 12:05:14;;;;;;;3.15;1.77;;;9.40;99.90;;;;;;5080466;28;20421;-55
2021/03/15 12:07:40;;;;;;;1.95;1.77;;;9.50;99.90;;;;;;5083624;28;20200;-53
2021/03/15 12:10:11;;;;;;;2.63;2.03;;;9.20;99.90;;;;;;5071592;28;20346;-55
2021/03/15 12:12:37;;;;;;;2.45;2.25;;;9.40;99.90;;;;;;5070058;28;20173;-55
2021/03/15 12:15:06;;;;;;;4.30;1.75;;;9.20;99.90;;;;;;5071794;28;20178;-55
2021/03/15 12:17:34;;;;;;;2.10;2.00;;;9.10;99.90;;;;;;5074281;28;20375;-55
2021/03/15 12:20:01;;;;;;;2.30;2.10;;;9.10;99.90;;;;;;5078934;28;20551;-55
2021/03/15 12:22:27;;;;;;;2.50;2.30;;;9.40;99.90;;;;;;5074079;28;20193;-55
2021/03/15 12:24:52;;;;;;;2.33;2.10;;;9.60;99.90;;;;;;5074616;28;20181;-55
2021/03/15 12:27:18;;;;;;;2.57;2.37;;;9.20;99.90;;;;;;5076799;28;20219;-55
2021/03/15 12:29:44;;;;;;;2.27;2.07;;;9.50;99.90;;;;;;5075121;28;20273;-55
2021/03/15 12:32:09;;;;;;;2.47;2.27;;;9.20;99.90;;;;;;5077513;28;20655;-55
2021/03/15 12:34:36;;;;;;;2.40;2.20;;;9.10;99.90;;;;;;5075481;28;20180;-55
2021/03/15 12:37:03;;;;;;;2.53;2.35;;;9.10;99.90;;;;;;5078717;28;20193;-55
2021/03/15 12:39:29;;;;;;;2.72;2.53;;;8.50;99.90;;;;;;5077166;28;20180;-55
2021/03/15 12:41:56;;;;;;;2.70;2.35;;;8.90;99.90;;;;;;5072129;28;20172;-55
2021/03/15 12:44:22;;;;;;;2.67;2.30;;;9.00;99.90;;;;;;5070261;28;20192;-55
2021/03/15 12:46:47;;;;;;;4.60;4.20;;;9.10;99.90;;;;;;5078366;28;20682;-55
2021/03/15 12:49:14;;;;;;;2.60;2.40;;;9.50;99.90;;;;;;5078782;28;20209;-55
2021/03/15 12:51:39;;;;;;;2.70;2.50;;;9.30;99.90;;;;;;5075022;28;20597;-55
2021/03/15 12:54:05;;;;;;;2.13;2.03;;;9.40;99.90;;;;;;5073128;28;20203;-53
2021/03/15 12:56:31;;;;;;;4.70;4.10;;;9.80;99.90;;;;;;5076059;28;20544;-54
2021/03/15 12:58:57;;;;;;;4.00;3.60;;;9.70;99.90;;;;;;5081438;28;20208;-52
2021/03/15 13:01:23;;;;;;;3.53;3.23;;;9.90;99.90;;;;;;5079478;28;20593;-51
2021/03/15 13:03:48;;;;;;;2.60;1.90;;;10.00;98.20;;;;;;5086282;28;20645;-52
2021/03/15 13:06:17;;;;;;;2.30;1.70;;;9.80;98.70;;;;;;5074386;28;20669;-52
2021/03/15 13:08:43;;;;;;;2.22;2.03;;;9.80;98.30;;;;;;5078104;28;20212;-52
2021/03/15 13:11:10;;;;;;;2.40;2.30;;;10.00;96.10;;;;;;5080855;28;20176;-53
2021/03/15 13:13:36;;;;;;;2.33;1.90;;;9.70;97.40;;;;;;5077599;28;20181;-53